sensor_id;sensor_type;location;lat;lon;timestamp;P1;durP1;ratioP1;P2;durP2;ratioP2
1987;SDS011;12775;46.994;15.498;2023-07-29T00:00:53;3.56;;;3.26;;
1987;SDS011;12775;46.994;15.498;2023-07-29T00:03:19;3.34;;;2.88;;
1987;SDS011;12775;46.994;15.498;2023-07-29T00:05:47;3.00;;;2.80;;
1987;SDS011;12775;46.994;15.498;2023-07-29T00:08:14;4.62;;;2.90;;
1987;SDS011;12775;46.994;15.498;2023-07-29T00:10:42;4.36;;;3.26;;
1987;SDS011;12775;46.994;15.498;2023-07-29T00:13:09;3.46;;;3.12;;
1987;SDS011;12775;46.994;15.498;2023-07-29T00:15:35;3.78;;;3.48;;
1987;SDS011;12775;46.994;15.498;2023-07-29T00:18:02;3.36;;;3.06;;
1987;SDS011;12775;46.994;15.498;2023-07-29T00:20:28;3.70;;;3.40;;
1987;SDS011;12775;46.994;15.498;2023-07-29T00:22:55;3.96;;;3.16;;
1987;SDS011;12775;46.994;15.498;2023-07-29T00:25:22;3.26;;;2.88;;
1987;SDS011;12775;46.994;15.498;2023-07-29T00:27:49;4.96;;;3.10;;
1987;SDS011;12775;46.994;15.498;2023-07-29T00:30:16;3.04;;;2.70;;
1987;SDS011;12775;46.994;15.498;2023-07-29T00:32:42;4.30;;;3.40;;
1987;SDS011;12775;46.994;15.498;2023-07-29T00:35:09;3.18;;;2.98;;
1987;SDS011;12775;46.994;15.498;2023-07-29T00:37:35;4.32;;;3.10;;
1987;SDS011;12775;46.994;15.498;2023-07-29T00:40:04;2.90;;;2.70;;
1987;SDS011;12775;46.994;15.498;2023-07-29T00:42:30;5.74;;;3.32;;
1987;SDS011;12775;46.994;15.498;2023-07-29T00:44:56;4.52;;;3.12;;
1987;SDS011;12775;46.994;15.498;2023-07-29T00:47:23;3.78;;;3.20;;
1987;SDS011;12775;46.994;15.498;2023-07-29T00:49:50;4.78;;;3.68;;
1987;SDS011;12775;46.994;15.498;2023-07-29T00:52:16;3.78;;;3.44;;
1987;SDS011;12775;46.994;15.498;2023-07-29T00:54:44;3.86;;;3.10;;
1987;SDS011;12775;46.994;15.498;2023-07-29T00:57:10;3.88;;;2.90;;
1987;SDS011;12775;46.994;15.498;2023-07-29T00:59:37;4.62;;;2.96;;
1987;SDS011;12775;46.994;15.498;2023-07-29T01:02:03;4.82;;;3.90;;
1987;SDS011;12775;46.994;15.498;2023-07-29T01:04:31;4.42;;;2.88;;
1987;SDS011;12775;46.994;15.498;2023-07-29T01:07:03;4.92;;;3.22;;
1987;SDS011;12775;46.994;15.498;2023-07-29T01:09:51;5.16;;;3.94;;
1987;SDS011;12775;46.994;15.498;2023-07-29T01:12:21;4.30;;;3.72;;
1987;SDS011;12775;46.994;15.498;2023-07-29T01:17:42;3.70;;;3.32;;
1987;SDS011;12775;46.994;15.498;2023-07-29T01:20:09;4.02;;;3.66;;
1987;SDS011;12775;46.994;15.498;2023-07-29T01:22:37;3.42;;;3.12;;
1987;SDS011;12775;46.994;15.498;2023-07-29T01:25:03;3.38;;;3.16;;
1987;SDS011;12775;46.994;15.498;2023-07-29T01:27:30;3.68;;;3.36;;
1987;SDS011;12775;46.994;15.498;2023-07-29T01:29:57;4.30;;;3.30;;
1987;SDS011;12775;46.994;15.498;2023-07-29T01:32:31;4.58;;;3.68;;
1987;SDS011;12775;46.994;15.498;2023-07-29T01:37:44;4.56;;;3.76;;
1987;SDS011;12775;46.994;15.498;2023-07-29T01:40:10;5.62;;;3.46;;
1987;SDS011;12775;46.994;15.498;2023-07-29T01:42:37;4.90;;;3.06;;
1987;SDS011;12775;46.994;15.498;2023-07-29T01:45:04;6.00;;;3.82;;
1987;SDS011;12775;46.994;15.498;2023-07-29T01:47:31;3.54;;;3.28;;
1987;SDS011;12775;46.994;15.498;2023-07-29T01:49:57;3.84;;;3.50;;
1987;SDS011;12775;46.994;15.498;2023-07-29T01:52:24;4.64;;;3.98;;
1987;SDS011;12775;46.994;15.498;2023-07-29T01:54:50;4.34;;;3.98;;
1987;SDS011;12775;46.994;15.498;2023-07-29T01:57:17;3.28;;;2.98;;
1987;SDS011;12775;46.994;15.498;2023-07-29T01:59:44;3.02;;;2.70;;
1987;SDS011;12775;46.994;15.498;2023-07-29T02:02:10;3.50;;;3.20;;
1987;SDS011;12775;46.994;15.498;2023-07-29T02:04:37;4.42;;;3.44;;
1987;SDS011;12775;46.994;15.498;2023-07-29T02:07:04;3.30;;;3.00;;
1987;SDS011;12775;46.994;15.498;2023-07-29T02:09:32;8.78;;;4.42;;
1987;SDS011;12775;46.994;15.498;2023-07-29T02:11:58;5.34;;;3.50;;
1987;SDS011;12775;46.994;15.498;2023-07-29T02:14:26;3.78;;;3.48;;
1987;SDS011;12775;46.994;15.498;2023-07-29T02:16:52;4.16;;;3.44;;
1987;SDS011;12775;46.994;15.498;2023-07-29T02:19:19;5.60;;;4.38;;
1987;SDS011;12775;46.994;15.498;2023-07-29T02:21:46;3.68;;;3.32;;
1987;SDS011;12775;46.994;15.498;2023-07-29T02:24:12;5.40;;;4.04;;
1987;SDS011;12775;46.994;15.498;2023-07-29T02:26:39;4.82;;;3.12;;
1987;SDS011;12775;46.994;15.498;2023-07-29T02:29:05;4.04;;;3.64;;
1987;SDS011;12775;46.994;15.498;2023-07-29T02:31:32;4.68;;;3.98;;
1987;SDS011;12775;46.994;15.498;2023-07-29T02:33:59;4.62;;;3.82;;
1987;SDS011;12775;46.994;15.498;2023-07-29T02:36:25;5.88;;;3.90;;
1987;SDS011;12775;46.994;15.498;2023-07-29T02:38:52;5.64;;;4.64;;
1987;SDS011;12775;46.994;15.498;2023-07-29T02:41:18;4.52;;;4.04;;
1987;SDS011;12775;46.994;15.498;2023-07-29T02:43:48;4.64;;;3.76;;
1987;SDS011;12775;46.994;15.498;2023-07-29T02:46:14;5.70;;;4.66;;
1987;SDS011;12775;46.994;15.498;2023-07-29T02:48:41;4.04;;;3.74;;
1987;SDS011;12775;46.994;15.498;2023-07-29T02:51:07;4.80;;;4.40;;
1987;SDS011;12775;46.994;15.498;2023-07-29T02:53:34;3.82;;;3.42;;
1987;SDS011;12775;46.994;15.498;2023-07-29T02:56:01;4.38;;;3.58;;
1987;SDS011;12775;46.994;15.498;2023-07-29T02:58:28;6.88;;;4.18;;
1987;SDS011;12775;46.994;15.498;2023-07-29T03:01:02;5.64;;;3.96;;
1987;SDS011;12775;46.994;15.498;2023-07-29T03:03:28;5.16;;;3.94;;
1987;SDS011;12775;46.994;15.498;2023-07-29T03:05:57;3.84;;;3.54;;
1987;SDS011;12775;46.994;15.498;2023-07-29T03:08:27;5.16;;;3.32;;
1987;SDS011;12775;46.994;15.498;2023-07-29T03:10:54;4.64;;;3.92;;
1987;SDS011;12775;46.994;15.498;2023-07-29T03:13:21;3.44;;;3.24;;
1987;SDS011;12775;46.994;15.498;2023-07-29T03:15:47;5.72;;;3.80;;
1987;SDS011;12775;46.994;15.498;2023-07-29T03:18:14;4.90;;;4.34;;
1987;SDS011;12775;46.994;15.498;2023-07-29T03:20:40;5.18;;;3.32;;
1987;SDS011;12775;46.994;15.498;2023-07-29T03:23:07;7.92;;;4.90;;
1987;SDS011;12775;46.994;15.498;2023-07-29T03:25:34;4.06;;;3.00;;
1987;SDS011;12775;46.994;15.498;2023-07-29T03:28:00;4.08;;;3.46;;
1987;SDS011;12775;46.994;15.498;2023-07-29T03:30:27;7.84;;;4.18;;
1987;SDS011;12775;46.994;15.498;2023-07-29T03:32:53;3.86;;;3.46;;
1987;SDS011;12775;46.994;15.498;2023-07-29T03:35:22;7.60;;;3.78;;
1987;SDS011;12775;46.994;15.498;2023-07-29T03:37:48;5.88;;;3.82;;
1987;SDS011;12775;46.994;15.498;2023-07-29T03:40:15;3.64;;;3.34;;
1987;SDS011;12775;46.994;15.498;2023-07-29T03:42:42;4.32;;;3.84;;
1987;SDS011;12775;46.994;15.498;2023-07-29T03:45:09;3.60;;;3.26;;
1987;SDS011;12775;46.994;15.498;2023-07-29T03:47:36;5.02;;;3.92;;
1987;SDS011;12775;46.994;15.498;2023-07-29T03:50:02;4.72;;;4.22;;
1987;SDS011;12775;46.994;15.498;2023-07-29T03:52:29;3.92;;;3.50;;
1987;SDS011;12775;46.994;15.498;2023-07-29T03:54:56;4.52;;;4.12;;
1987;SDS011;12775;46.994;15.498;2023-07-29T03:57:22;5.78;;;3.70;;
1987;SDS011;12775;46.994;15.498;2023-07-29T03:59:50;3.50;;;3.20;;
1987;SDS011;12775;46.994;15.498;2023-07-29T04:02:16;4.58;;;3.56;;
1987;SDS011;12775;46.994;15.498;2023-07-29T04:04:43;4.64;;;3.98;;
1987;SDS011;12775;46.994;15.498;2023-07-29T04:07:10;5.16;;;4.18;;
1987;SDS011;12775;46.994;15.498;2023-07-29T04:09:36;3.66;;;3.36;;
1987;SDS011;12775;46.994;15.498;2023-07-29T04:12:04;6.86;;;4.08;;
1987;SDS011;12775;46.994;15.498;2023-07-29T04:14:31;4.84;;;3.76;;
1987;SDS011;12775;46.994;15.498;2023-07-29T04:16:57;6.16;;;3.42;;
1987;SDS011;12775;46.994;15.498;2023-07-29T04:19:24;8.60;;;3.72;;
1987;SDS011;12775;46.994;15.498;2023-07-29T04:21:50;4.06;;;3.76;;
1987;SDS011;12775;46.994;15.498;2023-07-29T04:24:17;6.56;;;3.96;;
1987;SDS011;12775;46.994;15.498;2023-07-29T04:26:44;3.10;;;2.90;;
1987;SDS011;12775;46.994;15.498;2023-07-29T04:29:11;3.94;;;3.64;;
1987;SDS011;12775;46.994;15.498;2023-07-29T04:31:37;4.02;;;3.72;;
1987;SDS011;12775;46.994;15.498;2023-07-29T04:34:04;4.28;;;3.82;;
1987;SDS011;12775;46.994;15.498;2023-07-29T04:36:30;6.76;;;4.40;;
1987;SDS011;12775;46.994;15.498;2023-07-29T04:38:57;6.92;;;4.36;;
1987;SDS011;12775;46.994;15.498;2023-07-29T04:41:24;5.10;;;4.12;;
1987;SDS011;12775;46.994;15.498;2023-07-29T04:43:51;5.12;;;4.66;;
1987;SDS011;12775;46.994;15.498;2023-07-29T04:46:18;3.64;;;3.34;;
1987;SDS011;12775;46.994;15.498;2023-07-29T04:48:46;4.06;;;3.70;;
1987;SDS011;12775;46.994;15.498;2023-07-29T04:51:13;3.72;;;3.42;;
1987;SDS011;12775;46.994;15.498;2023-07-29T04:53:40;4.62;;;4.28;;
1987;SDS011;12775;46.994;15.498;2023-07-29T04:56:07;5.92;;;4.12;;
1987;SDS011;12775;46.994;15.498;2023-07-29T04:58:34;4.12;;;3.72;;
1987;SDS011;12775;46.994;15.498;2023-07-29T05:01:01;4.92;;;3.88;;
1987;SDS011;12775;46.994;15.498;2023-07-29T05:03:28;4.60;;;3.92;;
1987;SDS011;12775;46.994;15.498;2023-07-29T05:05:54;3.88;;;3.56;;
1987;SDS011;12775;46.994;15.498;2023-07-29T05:08:22;5.40;;;4.06;;
1987;SDS011;12775;46.994;15.498;2023-07-29T05:10:48;6.18;;;4.72;;
1987;SDS011;12775;46.994;15.498;2023-07-29T05:13:16;3.86;;;3.50;;
1987;SDS011;12775;46.994;15.498;2023-07-29T05:15:42;5.06;;;3.50;;
1987;SDS011;12775;46.994;15.498;2023-07-29T05:18:09;4.12;;;3.72;;
1987;SDS011;12775;46.994;15.498;2023-07-29T05:20:35;4.90;;;4.00;;
1987;SDS011;12775;46.994;15.498;2023-07-29T05:23:02;4.82;;;4.42;;
1987;SDS011;12775;46.994;15.498;2023-07-29T05:25:29;5.46;;;4.30;;
1987;SDS011;12775;46.994;15.498;2023-07-29T05:27:55;4.14;;;3.80;;
1987;SDS011;12775;46.994;15.498;2023-07-29T05:30:22;4.80;;;3.90;;
1987;SDS011;12775;46.994;15.498;2023-07-29T05:32:49;4.30;;;3.90;;
1987;SDS011;12775;46.994;15.498;2023-07-29T05:35:15;6.32;;;4.54;;
1987;SDS011;12775;46.994;15.498;2023-07-29T05:37:43;4.20;;;3.42;;
1987;SDS011;12775;46.994;15.498;2023-07-29T05:40:11;3.90;;;3.48;;
1987;SDS011;12775;46.994;15.498;2023-07-29T05:42:37;3.88;;;3.50;;
1987;SDS011;12775;46.994;15.498;2023-07-29T05:45:03;3.42;;;3.08;;
1987;SDS011;12775;46.994;15.498;2023-07-29T05:47:31;4.52;;;4.12;;
1987;SDS011;12775;46.994;15.498;2023-07-29T05:49:58;5.00;;;4.50;;
1987;SDS011;12775;46.994;15.498;2023-07-29T05:52:24;4.44;;;4.04;;
1987;SDS011;12775;46.994;15.498;2023-07-29T05:54:51;3.72;;;3.20;;
1987;SDS011;12775;46.994;15.498;2023-07-29T05:57:18;8.20;;;4.08;;
1987;SDS011;12775;46.994;15.498;2023-07-29T05:59:44;6.64;;;4.04;;
1987;SDS011;12775;46.994;15.498;2023-07-29T06:02:11;5.06;;;4.44;;
1987;SDS011;12775;46.994;15.498;2023-07-29T06:04:37;5.00;;;4.50;;
1987;SDS011;12775;46.994;15.498;2023-07-29T06:07:04;5.44;;;4.88;;
1987;SDS011;12775;46.994;15.498;2023-07-29T06:09:32;4.60;;;4.18;;
1987;SDS011;12775;46.994;15.498;2023-07-29T06:11:58;8.00;;;4.20;;
1987;SDS011;12775;46.994;15.498;2023-07-29T06:14:25;5.26;;;4.76;;
1987;SDS011;12775;46.994;15.498;2023-07-29T06:16:52;5.14;;;4.58;;
1987;SDS011;12775;46.994;15.498;2023-07-29T06:19:19;6.00;;;5.20;;
1987;SDS011;12775;46.994;15.498;2023-07-29T06:21:46;4.96;;;4.56;;
1987;SDS011;12775;46.994;15.498;2023-07-29T06:24:13;6.06;;;4.96;;
1987;SDS011;12775;46.994;15.498;2023-07-29T06:26:40;4.70;;;4.26;;
1987;SDS011;12775;46.994;15.498;2023-07-29T06:29:06;5.20;;;4.70;;
1987;SDS011;12775;46.994;15.498;2023-07-29T06:31:33;5.52;;;4.98;;
1987;SDS011;12775;46.994;15.498;2023-07-29T06:34:00;4.38;;;3.98;;
1987;SDS011;12775;46.994;15.498;2023-07-29T06:36:27;5.18;;;4.68;;
1987;SDS011;12775;46.994;15.498;2023-07-29T06:38:53;4.00;;;3.60;;
1987;SDS011;12775;46.994;15.498;2023-07-29T06:41:20;5.82;;;4.50;;
1987;SDS011;12775;46.994;15.498;2023-07-29T06:43:48;4.82;;;4.38;;
1987;SDS011;12775;46.994;15.498;2023-07-29T06:46:14;7.46;;;5.86;;
1987;SDS011;12775;46.994;15.498;2023-07-29T06:48:41;6.12;;;4.98;;
1987;SDS011;12775;46.994;15.498;2023-07-29T06:51:07;4.72;;;3.98;;
1987;SDS011;12775;46.994;15.498;2023-07-29T06:53:34;4.66;;;4.26;;
1987;SDS011;12775;46.994;15.498;2023-07-29T06:56:00;6.86;;;3.88;;
1987;SDS011;12775;46.994;15.498;2023-07-29T06:58:27;5.52;;;3.80;;
1987;SDS011;12775;46.994;15.498;2023-07-29T07:00:54;3.90;;;3.60;;
1987;SDS011;12775;46.994;15.498;2023-07-29T07:03:20;4.82;;;3.86;;
1987;SDS011;12775;46.994;15.498;2023-07-29T07:05:47;4.92;;;4.28;;
1987;SDS011;12775;46.994;15.498;2023-07-29T07:08:14;5.50;;;4.78;;
1987;SDS011;12775;46.994;15.498;2023-07-29T07:10:41;5.04;;;4.64;;
1987;SDS011;12775;46.994;15.498;2023-07-29T07:13:07;4.88;;;4.36;;
1987;SDS011;12775;46.994;15.498;2023-07-29T07:15:34;5.12;;;4.62;;
1987;SDS011;12775;46.994;15.498;2023-07-29T07:18:01;5.54;;;4.58;;
1987;SDS011;12775;46.994;15.498;2023-07-29T07:20:29;5.68;;;3.78;;
1987;SDS011;12775;46.994;15.498;2023-07-29T07:22:56;4.98;;;4.48;;
1987;SDS011;12775;46.994;15.498;2023-07-29T07:25:23;6.10;;;4.50;;
1987;SDS011;12775;46.994;15.498;2023-07-29T07:27:50;4.16;;;3.52;;
1987;SDS011;12775;46.994;15.498;2023-07-29T07:30:18;3.98;;;3.68;;
1987;SDS011;12775;46.994;15.498;2023-07-29T07:32:44;7.80;;;4.88;;
1987;SDS011;12775;46.994;15.498;2023-07-29T07:35:11;4.78;;;4.26;;
1987;SDS011;12775;46.994;15.498;2023-07-29T07:37:38;7.42;;;3.96;;
1987;SDS011;12775;46.994;15.498;2023-07-29T07:40:04;4.42;;;4.02;;
1987;SDS011;12775;46.994;15.498;2023-07-29T07:42:32;5.30;;;4.28;;
1987;SDS011;12775;46.994;15.498;2023-07-29T07:44:58;4.30;;;3.90;;
1987;SDS011;12775;46.994;15.498;2023-07-29T07:47:26;4.94;;;3.52;;
1987;SDS011;12775;46.994;15.498;2023-07-29T07:49:53;5.10;;;4.60;;
1987;SDS011;12775;46.994;15.498;2023-07-29T07:52:20;4.68;;;4.26;;
1987;SDS011;12775;46.994;15.498;2023-07-29T07:54:51;6.32;;;3.20;;
1987;SDS011;12775;46.994;15.498;2023-07-29T07:57:14;7.42;;;4.52;;
1987;SDS011;12775;46.994;15.498;2023-07-29T07:59:40;4.04;;;3.70;;
1987;SDS011;12775;46.994;15.498;2023-07-29T08:02:07;4.58;;;4.18;;
1987;SDS011;12775;46.994;15.498;2023-07-29T08:04:33;5.90;;;4.32;;
1987;SDS011;12775;46.994;15.498;2023-07-29T08:07:00;3.60;;;3.30;;
1987;SDS011;12775;46.994;15.498;2023-07-29T08:09:27;4.22;;;3.72;;
1987;SDS011;12775;46.994;15.498;2023-07-29T08:11:53;3.98;;;3.40;;
1987;SDS011;12775;46.994;15.498;2023-07-29T08:14:21;4.46;;;4.06;;
1987;SDS011;12775;46.994;15.498;2023-07-29T08:16:47;4.94;;;3.64;;
1987;SDS011;12775;46.994;15.498;2023-07-29T08:19:14;4.36;;;3.96;;
1987;SDS011;12775;46.994;15.498;2023-07-29T08:21:41;4.06;;;3.74;;
1987;SDS011;12775;46.994;15.498;2023-07-29T08:24:08;4.40;;;4.00;;
1987;SDS011;12775;46.994;15.498;2023-07-29T08:26:35;4.40;;;3.72;;
1987;SDS011;12775;46.994;15.498;2023-07-29T08:29:02;4.00;;;3.64;;
1987;SDS011;12775;46.994;15.498;2023-07-29T08:31:29;4.24;;;3.68;;
1987;SDS011;12775;46.994;15.498;2023-07-29T08:33:55;3.68;;;3.38;;
1987;SDS011;12775;46.994;15.498;2023-07-29T08:36:23;4.56;;;4.00;;
1987;SDS011;12775;46.994;15.498;2023-07-29T08:38:49;4.64;;;4.22;;
1987;SDS011;12775;46.994;15.498;2023-07-29T08:41:16;4.30;;;3.24;;
1987;SDS011;12775;46.994;15.498;2023-07-29T08:43:47;4.38;;;3.98;;
1987;SDS011;12775;46.994;15.498;2023-07-29T08:46:11;3.54;;;3.24;;
1987;SDS011;12775;46.994;15.498;2023-07-29T08:48:40;5.76;;;3.96;;
1987;SDS011;12775;46.994;15.498;2023-07-29T08:51:06;4.22;;;3.92;;
1987;SDS011;12775;46.994;15.498;2023-07-29T08:53:33;5.14;;;3.60;;
1987;SDS011;12775;46.994;15.498;2023-07-29T08:55:59;4.00;;;3.50;;
1987;SDS011;12775;46.994;15.498;2023-07-29T08:58:26;5.72;;;3.24;;
1987;SDS011;12775;46.994;15.498;2023-07-29T09:00:52;2.60;;;2.40;;
1987;SDS011;12775;46.994;15.498;2023-07-29T09:03:19;2.70;;;2.50;;
1987;SDS011;12775;46.994;15.498;2023-07-29T09:05:46;5.24;;;3.02;;
1987;SDS011;12775;46.994;15.498;2023-07-29T09:08:13;3.20;;;3.00;;
1987;SDS011;12775;46.994;15.498;2023-07-29T09:10:40;3.20;;;2.90;;
1987;SDS011;12775;46.994;15.498;2023-07-29T09:13:07;3.12;;;2.92;;
1987;SDS011;12775;46.994;15.498;2023-07-29T09:15:34;4.20;;;3.22;;
1987;SDS011;12775;46.994;15.498;2023-07-29T09:20:35;3.50;;;3.20;;
1987;SDS011;12775;46.994;15.498;2023-07-29T09:23:01;3.90;;;3.04;;
1987;SDS011;12775;46.994;15.498;2023-07-29T09:25:29;3.02;;;2.82;;
1987;SDS011;12775;46.994;15.498;2023-07-29T09:27:59;2.94;;;2.74;;
1987;SDS011;12775;46.994;15.498;2023-07-29T09:30:26;5.10;;;3.50;;
1987;SDS011;12775;46.994;15.498;2023-07-29T09:32:56;3.22;;;2.92;;
1987;SDS011;12775;46.994;15.498;2023-07-29T09:35:22;2.94;;;2.70;;
1987;SDS011;12775;46.994;15.498;2023-07-29T09:37:50;2.86;;;2.66;;
1987;SDS011;12775;46.994;15.498;2023-07-29T09:40:17;2.82;;;2.62;;
1987;SDS011;12775;46.994;15.498;2023-07-29T09:42:48;3.92;;;3.08;;
1987;SDS011;12775;46.994;15.498;2023-07-29T09:45:19;3.54;;;3.22;;
1987;SDS011;12775;46.994;15.498;2023-07-29T09:47:46;2.80;;;2.60;;
1987;SDS011;12775;46.994;15.498;2023-07-29T09:50:12;3.08;;;2.78;;
1987;SDS011;12775;46.994;15.498;2023-07-29T09:52:38;3.56;;;3.26;;
1987;SDS011;12775;46.994;15.498;2023-07-29T09:55:05;6.40;;;2.70;;
1987;SDS011;12775;46.994;15.498;2023-07-29T09:57:32;4.24;;;3.68;;
1987;SDS011;12775;46.994;15.498;2023-07-29T09:59:58;3.20;;;2.90;;
1987;SDS011;12775;46.994;15.498;2023-07-29T10:02:25;4.22;;;3.04;;
1987;SDS011;12775;46.994;15.498;2023-07-29T10:04:53;3.48;;;3.06;;
1987;SDS011;12775;46.994;15.498;2023-07-29T10:07:19;3.02;;;2.82;;
1987;SDS011;12775;46.994;15.498;2023-07-29T10:09:46;3.42;;;3.12;;
1987;SDS011;12775;46.994;15.498;2023-07-29T10:12:12;4.42;;;3.58;;
1987;SDS011;12775;46.994;15.498;2023-07-29T10:14:39;4.84;;;2.82;;
1987;SDS011;12775;46.994;15.498;2023-07-29T10:17:06;3.56;;;3.26;;
1987;SDS011;12775;46.994;15.498;2023-07-29T10:19:32;2.78;;;2.58;;
1987;SDS011;12775;46.994;15.498;2023-07-29T10:21:59;4.02;;;3.44;;
1987;SDS011;12775;46.994;15.498;2023-07-29T10:24:28;3.20;;;2.94;;
1987;SDS011;12775;46.994;15.498;2023-07-29T10:26:54;2.80;;;2.60;;
1987;SDS011;12775;46.994;15.498;2023-07-29T10:29:20;2.96;;;2.68;;
1987;SDS011;12775;46.994;15.498;2023-07-29T10:31:47;3.16;;;2.86;;
1987;SDS011;12775;46.994;15.498;2023-07-29T10:34:13;2.96;;;2.76;;
1987;SDS011;12775;46.994;15.498;2023-07-29T10:36:40;2.98;;;2.70;;
1987;SDS011;12775;46.994;15.498;2023-07-29T10:39:07;2.70;;;2.50;;
1987;SDS011;12775;46.994;15.498;2023-07-29T10:46:50;2.30;;;2.10;;
1987;SDS011;12775;46.994;15.498;2023-07-29T10:49:17;2.50;;;2.30;;
1987;SDS011;12775;46.994;15.498;2023-07-29T10:51:44;2.98;;;2.40;;
1987;SDS011;12775;46.994;15.498;2023-07-29T10:54:11;2.36;;;2.16;;
1987;SDS011;12775;46.994;15.498;2023-07-29T10:56:40;2.66;;;2.46;;
1987;SDS011;12775;46.994;15.498;2023-07-29T11:01:59;3.10;;;2.64;;
1987;SDS011;12775;46.994;15.498;2023-07-29T11:04:26;3.50;;;2.84;;
1987;SDS011;12775;46.994;15.498;2023-07-29T11:10:01;2.46;;;2.22;;
1987;SDS011;12775;46.994;15.498;2023-07-29T11:15:13;2.74;;;2.54;;
1987;SDS011;12775;46.994;15.498;2023-07-29T11:17:39;2.74;;;2.54;;
1987;SDS011;12775;46.994;15.498;2023-07-29T11:20:07;3.54;;;2.88;;
1987;SDS011;12775;46.994;15.498;2023-07-29T11:22:33;2.74;;;2.54;;
1987;SDS011;12775;46.994;15.498;2023-07-29T11:25:01;2.50;;;2.30;;
1987;SDS011;12775;46.994;15.498;2023-07-29T11:27:27;2.66;;;2.46;;
1987;SDS011;12775;46.994;15.498;2023-07-29T11:29:56;3.22;;;3.02;;
1987;SDS011;12775;46.994;15.498;2023-07-29T11:32:22;2.64;;;2.20;;
1987;SDS011;12775;46.994;15.498;2023-07-29T11:34:49;3.22;;;2.92;;
1987;SDS011;12775;46.994;15.498;2023-07-29T11:37:16;3.54;;;2.80;;
1987;SDS011;12775;46.994;15.498;2023-07-29T11:39:43;3.40;;;3.10;;
1987;SDS011;12775;46.994;15.498;2023-07-29T11:42:10;3.26;;;3.04;;
1987;SDS011;12775;46.994;15.498;2023-07-29T11:44:37;3.02;;;2.82;;
1987;SDS011;12775;46.994;15.498;2023-07-29T11:47:06;3.18;;;2.90;;
1987;SDS011;12775;46.994;15.498;2023-07-29T11:49:32;3.54;;;3.22;;
1987;SDS011;12775;46.994;15.498;2023-07-29T11:51:59;3.68;;;2.86;;
1987;SDS011;12775;46.994;15.498;2023-07-29T11:54:26;3.08;;;2.88;;
1987;SDS011;12775;46.994;15.498;2023-07-29T11:56:53;4.10;;;2.88;;
1987;SDS011;12775;46.994;15.498;2023-07-29T11:59:19;2.78;;;2.50;;
1987;SDS011;12775;46.994;15.498;2023-07-29T12:01:46;2.86;;;2.66;;
1987;SDS011;12775;46.994;15.498;2023-07-29T12:04:12;3.48;;;3.18;;
1987;SDS011;12775;46.994;15.498;2023-07-29T12:06:39;2.90;;;2.70;;
1987;SDS011;12775;46.994;15.498;2023-07-29T12:09:06;5.12;;;2.64;;
1987;SDS011;12775;46.994;15.498;2023-07-29T12:11:32;2.48;;;2.28;;
1987;SDS011;12775;46.994;15.498;2023-07-29T12:14:00;3.14;;;2.52;;
1987;SDS011;12775;46.994;15.498;2023-07-29T12:16:26;3.82;;;3.52;;
1987;SDS011;12775;46.994;15.498;2023-07-29T12:18:53;2.74;;;2.54;;
1987;SDS011;12775;46.994;15.498;2023-07-29T12:21:19;3.96;;;2.92;;
1987;SDS011;12775;46.994;15.498;2023-07-29T12:23:46;3.00;;;2.80;;
1987;SDS011;12775;46.994;15.498;2023-07-29T12:26:12;3.58;;;2.90;;
1987;SDS011;12775;46.994;15.498;2023-07-29T12:28:44;3.20;;;2.94;;
1987;SDS011;12775;46.994;15.498;2023-07-29T12:31:07;2.64;;;2.44;;
1987;SDS011;12775;46.994;15.498;2023-07-29T12:33:33;2.98;;;2.78;;
1987;SDS011;12775;46.994;15.498;2023-07-29T12:36:00;3.08;;;2.88;;
1987;SDS011;12775;46.994;15.498;2023-07-29T12:38:27;3.54;;;3.24;;
1987;SDS011;12775;46.994;15.498;2023-07-29T12:40:54;2.84;;;2.64;;
1987;SDS011;12775;46.994;15.498;2023-07-29T12:43:20;3.32;;;3.02;;
1987;SDS011;12775;46.994;15.498;2023-07-29T12:45:49;3.46;;;3.16;;
1987;SDS011;12775;46.994;15.498;2023-07-29T12:48:15;3.52;;;2.60;;
1987;SDS011;12775;46.994;15.498;2023-07-29T12:50:42;3.58;;;3.28;;
1987;SDS011;12775;46.994;15.498;2023-07-29T12:53:09;5.94;;;3.12;;
1987;SDS011;12775;46.994;15.498;2023-07-29T12:55:37;2.68;;;2.48;;
1987;SDS011;12775;46.994;15.498;2023-07-29T12:58:03;2.70;;;2.50;;
1987;SDS011;12775;46.994;15.498;2023-07-29T13:00:30;4.10;;;3.80;;
1987;SDS011;12775;46.994;15.498;2023-07-29T13:02:57;3.08;;;2.88;;
1987;SDS011;12775;46.994;15.498;2023-07-29T13:05:23;7.84;;;2.92;;
1987;SDS011;12775;46.994;15.498;2023-07-29T13:07:50;3.20;;;2.68;;
1987;SDS011;12775;46.994;15.498;2023-07-29T13:10:16;3.46;;;3.18;;
1987;SDS011;12775;46.994;15.498;2023-07-29T13:12:43;3.60;;;3.30;;
1987;SDS011;12775;46.994;15.498;2023-07-29T13:15:10;3.40;;;3.06;;
1987;SDS011;12775;46.994;15.498;2023-07-29T13:17:36;3.68;;;3.38;;
1987;SDS011;12775;46.994;15.498;2023-07-29T13:20:03;2.88;;;2.68;;
1987;SDS011;12775;46.994;15.498;2023-07-29T13:22:31;3.86;;;2.94;;
1987;SDS011;12775;46.994;15.498;2023-07-29T13:24:58;3.96;;;3.26;;
1987;SDS011;12775;46.994;15.498;2023-07-29T13:27:24;3.20;;;2.90;;
1987;SDS011;12775;46.994;15.498;2023-07-29T13:29:51;4.02;;;3.44;;
1987;SDS011;12775;46.994;15.498;2023-07-29T13:32:17;3.52;;;3.20;;
1987;SDS011;12775;46.994;15.498;2023-07-29T13:34:44;3.92;;;2.50;;
1987;SDS011;12775;46.994;15.498;2023-07-29T13:37:11;3.00;;;2.72;;
1987;SDS011;12775;46.994;15.498;2023-07-29T13:39:38;3.34;;;3.04;;
1987;SDS011;12775;46.994;15.498;2023-07-29T13:42:06;3.00;;;2.80;;
1987;SDS011;12775;46.994;15.498;2023-07-29T13:44:32;3.72;;;2.72;;
1987;SDS011;12775;46.994;15.498;2023-07-29T13:46:59;2.84;;;2.62;;
1987;SDS011;12775;46.994;15.498;2023-07-29T13:49:25;3.66;;;2.80;;
1987;SDS011;12775;46.994;15.498;2023-07-29T13:51:53;3.74;;;2.44;;
1987;SDS011;12775;46.994;15.498;2023-07-29T13:54:20;2.86;;;2.18;;
1987;SDS011;12775;46.994;15.498;2023-07-29T13:56:46;2.70;;;2.50;;
1987;SDS011;12775;46.994;15.498;2023-07-29T13:59:13;2.48;;;2.28;;
1987;SDS011;12775;46.994;15.498;2023-07-29T14:01:39;2.32;;;2.12;;
1987;SDS011;12775;46.994;15.498;2023-07-29T14:04:06;2.84;;;2.60;;
1987;SDS011;12775;46.994;15.498;2023-07-29T14:06:32;2.82;;;2.62;;
1987;SDS011;12775;46.994;15.498;2023-07-29T14:09:00;2.70;;;2.50;;
1987;SDS011;12775;46.994;15.498;2023-07-29T14:11:27;3.22;;;2.96;;
1987;SDS011;12775;46.994;15.498;2023-07-29T14:13:54;3.02;;;2.80;;
1987;SDS011;12775;46.994;15.498;2023-07-29T14:16:21;3.36;;;3.06;;
1987;SDS011;12775;46.994;15.498;2023-07-29T14:18:48;3.52;;;2.92;;
1987;SDS011;12775;46.994;15.498;2023-07-29T14:21:15;3.04;;;2.84;;
1987;SDS011;12775;46.994;15.498;2023-07-29T14:23:41;3.24;;;2.94;;
1987;SDS011;12775;46.994;15.498;2023-07-29T14:26:08;3.24;;;2.58;;
1987;SDS011;12775;46.994;15.498;2023-07-29T14:28:35;3.30;;;3.10;;
1987;SDS011;12775;46.994;15.498;2023-07-29T14:31:01;3.62;;;3.20;;
1987;SDS011;12775;46.994;15.498;2023-07-29T14:33:28;2.52;;;2.32;;
1987;SDS011;12775;46.994;15.498;2023-07-29T14:35:55;3.40;;;3.12;;
1987;SDS011;12775;46.994;15.498;2023-07-29T14:38:22;3.16;;;2.96;;
1987;SDS011;12775;46.994;15.498;2023-07-29T14:40:49;3.40;;;3.10;;
1987;SDS011;12775;46.994;15.498;2023-07-29T14:43:16;3.36;;;3.14;;
1987;SDS011;12775;46.994;15.498;2023-07-29T14:45:42;2.78;;;2.58;;
1987;SDS011;12775;46.994;15.498;2023-07-29T14:48:10;2.84;;;2.62;;
1987;SDS011;12775;46.994;15.498;2023-07-29T14:50:36;2.62;;;2.42;;
1987;SDS011;12775;46.994;15.498;2023-07-29T14:53:04;3.76;;;3.40;;
1987;SDS011;12775;46.994;15.498;2023-07-29T14:55:31;3.62;;;3.32;;
1987;SDS011;12775;46.994;15.498;2023-07-29T14:57:58;3.28;;;2.98;;
1987;SDS011;12775;46.994;15.498;2023-07-29T15:00:24;3.02;;;2.82;;
1987;SDS011;12775;46.994;15.498;2023-07-29T15:02:51;3.04;;;2.82;;
1987;SDS011;12775;46.994;15.498;2023-07-29T15:05:18;3.18;;;2.80;;
1987;SDS011;12775;46.994;15.498;2023-07-29T15:07:44;2.90;;;2.70;;